createdAt,value
2022-12-03T00:00:44.320Z,1.50
2022-12-03T00:03:18.172Z,1.50
2022-12-03T00:05:51.520Z,1.40
2022-12-03T00:08:26.160Z,1.40
2022-12-03T00:10:59.427Z,1.40
2022-12-03T00:13:32.900Z,1.40
2022-12-03T00:16:06.593Z,1.40
2022-12-03T00:18:41.732Z,1.40
2022-12-03T00:21:15.484Z,1.40
2022-12-03T00:23:50.098Z,1.40
2022-12-03T00:26:23.769Z,1.40
2022-12-03T00:28:57.891Z,1.40
2022-12-03T00:31:31.172Z,1.30
2022-12-03T00:34:04.642Z,1.40
2022-12-03T00:36:38.021Z,1.40
2022-12-03T00:39:12.664Z,1.40
2022-12-03T00:41:45.925Z,1.40
2022-12-03T00:44:19.559Z,1.40
2022-12-03T00:46:52.877Z,1.40
2022-12-03T00:49:26.317Z,1.40
2022-12-03T00:51:59.570Z,1.50
2022-12-03T00:54:34.860Z,1.50
2022-12-03T00:57:08.287Z,1.50
2022-12-03T00:59:41.547Z,1.50
2022-12-03T01:02:15.078Z,1.50
2022-12-03T01:04:48.424Z,1.50
2022-12-03T01:07:22.051Z,1.50
2022-12-03T01:09:56.741Z,1.50
2022-12-03T01:12:30.033Z,1.50
2022-12-03T01:15:03.781Z,1.50
2022-12-03T01:17:37.172Z,1.50
2022-12-03T01:20:12.100Z,1.50
2022-12-03T01:22:45.380Z,1.50
2022-12-03T01:25:21.022Z,1.50
2022-12-03T01:27:54.423Z,1.50
2022-12-03T01:30:27.714Z,1.50
2022-12-03T01:33:00.148Z,1.50
2022-12-03T01:35:33.394Z,1.50
2022-12-03T01:38:06.642Z,1.50
2022-12-03T01:40:41.570Z,1.50
2022-12-03T01:43:14.831Z,1.50
2022-12-03T01:45:48.323Z,1.50
2022-12-03T01:48:21.810Z,1.50
2022-12-03T01:50:55.083Z,1.50
2022-12-03T01:53:28.649Z,1.50
2022-12-03T01:56:03.394Z,1.40
2022-12-03T01:58:36.926Z,1.40
2022-12-03T02:01:14.582Z,1.40
2022-12-03T02:03:48.270Z,1.40
2022-12-03T02:06:24.018Z,1.40
2022-12-03T02:08:59.903Z,1.40
2022-12-03T02:11:36.739Z,1.40
2022-12-03T02:14:12.997Z,1.50
2022-12-03T02:16:47.143Z,1.40
2022-12-03T02:19:26.247Z,1.50
2022-12-03T02:22:06.730Z,1.40
2022-12-03T02:24:47.362Z,1.50
2022-12-03T02:27:23.084Z,1.40
2022-12-03T02:29:56.480Z,1.40
2022-12-03T02:32:30.145Z,1.40
2022-12-03T02:35:03.750Z,1.40
2022-12-03T02:37:38.532Z,1.40
2022-12-03T02:40:16.312Z,1.40
2022-12-03T02:42:54.887Z,1.40
2022-12-03T02:45:31.367Z,1.40
2022-12-03T02:48:09.888Z,1.40
2022-12-03T02:50:45.227Z,1.40
2022-12-03T02:53:24.692Z,1.40
2022-12-03T02:56:01.849Z,1.40
2022-12-03T02:58:36.744Z,1.40
2022-12-03T03:01:10.874Z,1.40
2022-12-03T03:03:45.971Z,1.40
2022-12-03T03:06:20.460Z,1.40
2022-12-03T03:08:54.034Z,1.40
2022-12-03T03:11:28.152Z,1.40
2022-12-03T03:14:04.385Z,1.40
2022-12-03T03:16:37.673Z,1.40
2022-12-03T03:19:11.038Z,1.40
2022-12-03T03:21:45.637Z,1.40
2022-12-03T03:24:19.214Z,1.30
2022-12-03T03:26:54.254Z,1.30
2022-12-03T03:29:29.277Z,1.30
2022-12-03T03:32:04.204Z,1.30
2022-12-03T03:34:37.680Z,1.30
2022-12-03T03:37:10.941Z,1.30
2022-12-03T03:39:44.567Z,1.30
2022-12-03T03:42:18.230Z,1.30
2022-12-03T03:44:53.166Z,1.30
2022-12-03T03:47:26.922Z,1.30
2022-12-03T03:50:00.247Z,1.30
2022-12-03T03:52:33.676Z,1.40
2022-12-03T03:55:08.364Z,1.40
2022-12-03T03:57:41.676Z,1.40
2022-12-03T04:00:17.466Z,1.40
2022-12-03T04:02:50.725Z,1.40
2022-12-03T04:05:25.950Z,1.40
2022-12-03T04:07:59.617Z,1.40
2022-12-03T04:10:50.416Z,1.40
2022-12-03T04:13:23.838Z,1.40
2022-12-03T04:15:58.485Z,1.40
2022-12-03T04:18:46.861Z,1.40
2022-12-03T04:21:39.672Z,1.40
2022-12-03T04:24:13.013Z,1.40
2022-12-03T04:27:03.595Z,1.40
2022-12-03T04:29:37.185Z,1.40
2022-12-03T04:32:29.198Z,1.50
2022-12-03T04:35:19.926Z,1.40
2022-12-03T04:37:53.515Z,1.40
2022-12-03T04:40:44.318Z,1.40
2022-12-03T04:43:17.896Z,1.40
2022-12-03T04:45:51.338Z,1.40
2022-12-03T04:48:26.382Z,1.40
2022-12-03T04:50:59.626Z,1.40
2022-12-03T04:53:35.380Z,1.40
2022-12-03T04:56:09.676Z,1.40
2022-12-03T04:58:42.914Z,1.40
2022-12-03T05:01:16.548Z,1.40
2022-12-03T05:03:51.507Z,1.40
2022-12-03T05:06:24.835Z,1.50
2022-12-03T05:08:58.571Z,1.50
2022-12-03T05:11:31.864Z,1.50
2022-12-03T05:14:05.550Z,1.50
2022-12-03T05:16:39.149Z,1.50
2022-12-03T05:19:14.088Z,1.50
2022-12-03T05:21:46.395Z,1.50
2022-12-03T05:24:21.057Z,1.50
2022-12-03T05:26:54.502Z,1.50
2022-12-03T05:29:27.942Z,1.50
2022-12-03T05:32:01.210Z,1.50
2022-12-03T05:34:36.018Z,1.50
2022-12-03T05:37:09.282Z,1.50
2022-12-03T05:39:42.566Z,1.50
2022-12-03T05:42:29.856Z,1.50
2022-12-03T05:45:03.283Z,1.50
2022-12-03T05:47:36.635Z,1.50
2022-12-03T05:50:11.991Z,1.50
2022-12-03T05:52:46.196Z,1.50
2022-12-03T05:55:20.097Z,1.50
2022-12-03T05:57:53.460Z,1.40
2022-12-03T06:00:28.819Z,1.50
2022-12-03T06:03:02.173Z,1.40
2022-12-03T06:05:37.309Z,1.40
2022-12-03T06:08:10.569Z,1.50
2022-12-03T06:10:43.941Z,1.50
2022-12-03T06:13:17.483Z,1.50
2022-12-03T06:15:50.809Z,1.50
2022-12-03T06:18:24.109Z,1.50
2022-12-03T06:20:58.751Z,1.50
2022-12-03T06:23:32.002Z,1.50
2022-12-03T06:26:05.359Z,1.50
2022-12-03T06:28:38.698Z,1.50
2022-12-03T06:31:12.056Z,1.50
2022-12-03T06:33:45.359Z,1.50
2022-12-03T06:36:23.225Z,1.50
2022-12-03T06:38:56.807Z,1.60
2022-12-03T06:41:30.250Z,1.50
2022-12-03T06:44:03.504Z,1.60
2022-12-03T06:46:36.859Z,1.50
2022-12-03T06:49:10.446Z,1.50
2022-12-03T06:51:45.275Z,1.50
2022-12-03T06:54:18.540Z,1.40
2022-12-03T06:56:51.832Z,1.40
2022-12-03T06:59:25.078Z,1.40
2022-12-03T07:01:58.414Z,1.30
2022-12-03T07:04:31.777Z,1.30
2022-12-03T07:07:06.505Z,1.30
2022-12-03T07:09:39.794Z,1.30
2022-12-03T07:12:13.162Z,1.30
2022-12-03T07:14:46.721Z,1.40
2022-12-03T07:17:20.054Z,1.40
2022-12-03T07:19:53.433Z,1.40
2022-12-03T07:22:28.193Z,1.40
2022-12-03T07:25:01.562Z,1.40
2022-12-03T07:27:35.003Z,1.40
2022-12-03T07:30:09.653Z,1.40
2022-12-03T07:32:42.996Z,1.40
2022-12-03T07:35:17.413Z,1.50
2022-12-03T07:37:52.115Z,1.50
2022-12-03T07:40:25.414Z,1.50
2022-12-03T07:42:58.728Z,1.60
2022-12-03T07:45:32.055Z,1.60
2022-12-03T07:48:05.501Z,1.60
2022-12-03T07:50:39.172Z,1.60
2022-12-03T07:53:13.919Z,1.70
2022-12-03T07:55:47.251Z,1.80
2022-12-03T07:58:20.729Z,1.80
2022-12-03T08:00:54.103Z,1.80
2022-12-03T08:03:27.414Z,1.80
2022-12-03T08:06:00.718Z,1.90
2022-12-03T08:08:35.588Z,1.90
2022-12-03T08:11:13.900Z,1.90
2022-12-03T08:13:47.192Z,1.90
2022-12-03T08:16:22.982Z,2.00
2022-12-03T08:18:58.045Z,2.00
2022-12-03T08:21:37.281Z,2.10
2022-12-03T08:24:17.145Z,2.10
2022-12-03T08:26:50.784Z,2.10
2022-12-03T08:29:25.549Z,2.10
2022-12-03T08:31:59.967Z,2.20
2022-12-03T08:34:40.334Z,2.20
2022-12-03T08:37:17.888Z,2.30
2022-12-03T08:39:56.682Z,2.30
2022-12-03T08:42:43.084Z,2.40
2022-12-03T08:45:39.574Z,2.50
2022-12-03T08:48:32.626Z,2.50
2022-12-03T08:51:14.072Z,2.70
2022-12-03T08:53:49.617Z,2.60
2022-12-03T08:56:26.232Z,2.70
2022-12-03T08:59:01.667Z,2.70
2022-12-03T09:01:42.888Z,2.70
2022-12-03T09:04:25.166Z,2.80
2022-12-03T09:06:59.146Z,2.80
2022-12-03T09:09:32.464Z,2.80
2022-12-03T09:12:08.427Z,2.90
2022-12-03T09:14:41.715Z,3.00
2022-12-03T09:17:14.979Z,3.00
2022-12-03T09:19:48.278Z,3.00
2022-12-03T09:22:21.573Z,3.10
2022-12-03T09:24:55.022Z,3.20
2022-12-03T09:27:29.831Z,3.20
2022-12-03T09:30:03.642Z,3.30
2022-12-03T09:32:36.969Z,3.30
2022-12-03T09:35:10.606Z,3.40
2022-12-03T09:37:44.087Z,3.40
2022-12-03T09:40:17.510Z,3.50
2022-12-03T09:42:53.389Z,3.50
2022-12-03T09:45:26.813Z,3.60
2022-12-03T09:48:03.057Z,3.60
2022-12-03T09:50:40.487Z,3.80
2022-12-03T09:53:18.183Z,3.80
2022-12-03T09:55:51.731Z,3.90
2022-12-03T09:58:34.295Z,3.90
2022-12-03T10:01:12.114Z,4.00
2022-12-03T10:03:47.843Z,4.10
2022-12-03T10:06:23.389Z,4.20
2022-12-03T10:08:57.015Z,4.30
2022-12-03T10:11:32.535Z,4.40
2022-12-03T10:14:07.703Z,4.50
2022-12-03T10:16:42.151Z,4.50
2022-12-03T10:19:22.209Z,4.60
2022-12-03T10:21:55.712Z,4.70
2022-12-03T10:24:31.021Z,4.70
2022-12-03T10:27:06.974Z,4.80
2022-12-03T10:29:41.872Z,4.80
2022-12-03T10:32:15.218Z,4.80
2022-12-03T10:34:48.633Z,4.90
2022-12-03T10:37:23.264Z,4.90
2022-12-03T10:39:59.924Z,5.00
2022-12-03T10:42:36.195Z,5.00
2022-12-03T10:45:22.675Z,5.00
2022-12-03T10:48:08.427Z,5.10
2022-12-03T10:50:52.488Z,5.20
2022-12-03T10:53:29.850Z,5.30
2022-12-03T10:56:07.396Z,5.40
2022-12-03T10:58:41.675Z,5.60
2022-12-03T11:01:18.630Z,5.70
2022-12-03T11:03:52.225Z,5.80
2022-12-03T11:06:25.605Z,5.90
2022-12-03T11:09:03.837Z,6.00
2022-12-03T11:11:40.439Z,6.00
2022-12-03T11:14:16.870Z,6.10
2022-12-03T11:17:11.041Z,6.20
2022-12-03T11:19:49.093Z,6.30
2022-12-03T11:22:44.324Z,6.50
2022-12-03T11:25:46.988Z,6.50
2022-12-03T11:28:37.947Z,6.60
2022-12-03T11:31:35.703Z,6.70
2022-12-03T11:34:41.646Z,6.90
2022-12-03T11:37:28.413Z,7.10
2022-12-03T11:40:39.357Z,7.30
2022-12-03T11:43:13.068Z,7.30
2022-12-03T11:45:47.011Z,7.20
2022-12-03T11:48:20.389Z,7.30
2022-12-03T11:50:54.788Z,7.50
2022-12-03T11:53:32.628Z,7.70
2022-12-03T11:56:09.059Z,7.90
2022-12-03T11:58:45.349Z,8.10
2022-12-03T12:01:38.263Z,8.20
2022-12-03T12:04:29.567Z,8.40
2022-12-03T12:07:03.536Z,8.60
2022-12-03T12:09:52.226Z,8.50
2022-12-03T12:12:31.631Z,8.60
2022-12-03T12:15:43.127Z,8.70
2022-12-03T12:18:39.222Z,8.90
2022-12-03T12:21:42.029Z,9.10
2022-12-03T12:24:47.163Z,9.30
2022-12-03T12:27:23.741Z,9.50
2022-12-03T12:30:04.038Z,9.30
2022-12-03T12:32:46.240Z,9.30
2022-12-03T12:35:22.228Z,9.40
2022-12-03T12:38:00.204Z,9.50
2022-12-03T12:40:35.687Z,9.50
2022-12-03T12:43:24.075Z,9.60
2022-12-03T12:46:18.529Z,9.70
2022-12-03T12:48:59.680Z,9.80
2022-12-03T12:51:44.063Z,9.60
2022-12-03T12:54:18.943Z,9.70
2022-12-03T12:56:53.201Z,9.60
2022-12-03T12:59:27.937Z,9.50
2022-12-03T13:02:08.503Z,9.50
2022-12-03T13:04:43.479Z,9.40
2022-12-03T13:07:16.867Z,9.30
2022-12-03T13:09:55.603Z,9.20
2022-12-03T13:12:29.155Z,9.20
2022-12-03T13:15:03.843Z,9.20
2022-12-03T13:17:37.137Z,9.30
2022-12-03T13:20:18.993Z,9.40
2022-12-03T13:22:52.277Z,9.50
2022-12-03T13:25:59.307Z,9.50
2022-12-03T13:28:31.307Z,9.50
2022-12-03T13:31:25.752Z,9.40
2022-12-03T13:34:00.730Z,9.30
2022-12-03T13:36:40.308Z,9.20
2022-12-03T13:39:19.728Z,9.10
2022-12-03T13:42:10.647Z,9.00
2022-12-03T13:44:48.550Z,8.90
2022-12-03T13:47:24.393Z,8.60
2022-12-03T13:50:03.617Z,8.50
2022-12-03T13:52:37.030Z,8.30
2022-12-03T13:55:12.771Z,8.20
2022-12-03T13:57:46.102Z,8.00
2022-12-03T14:00:19.975Z,7.80
2022-12-03T14:02:54.716Z,7.60
2022-12-03T14:05:28.238Z,7.50
2022-12-03T14:08:02.379Z,7.30
2022-12-03T14:10:35.838Z,7.10
2022-12-03T14:13:09.174Z,6.90
2022-12-03T14:15:42.852Z,6.70
2022-12-03T14:18:17.786Z,6.50
2022-12-03T14:20:51.144Z,6.30
2022-12-03T14:23:24.501Z,6.20
2022-12-03T14:25:57.869Z,6.00
2022-12-03T14:28:31.234Z,5.80
2022-12-03T14:31:04.572Z,5.60
2022-12-03T14:33:39.279Z,5.40
2022-12-03T14:36:12.581Z,5.20
2022-12-03T14:38:45.874Z,5.10
2022-12-03T14:41:36.753Z,4.90
2022-12-03T14:44:10.111Z,4.80
2022-12-03T14:46:43.418Z,4.60
2022-12-03T14:49:18.793Z,4.40
2022-12-03T14:51:52.132Z,4.30
2022-12-03T14:54:25.908Z,4.20
2022-12-03T14:56:59.282Z,4.10
2022-12-03T14:59:32.725Z,3.90
2022-12-03T15:02:06.304Z,3.80
2022-12-03T15:04:41.408Z,3.70
2022-12-03T15:07:14.752Z,3.60
2022-12-03T15:09:48.108Z,3.40
2022-12-03T15:12:21.451Z,3.40
2022-12-03T15:14:54.773Z,3.30
2022-12-03T15:17:31.910Z,3.30
2022-12-03T15:20:08.365Z,3.20
2022-12-03T15:22:42.017Z,3.00
2022-12-03T15:25:15.538Z,2.80
2022-12-03T15:27:48.868Z,2.70
2022-12-03T15:30:22.301Z,2.60
2022-12-03T15:32:55.657Z,2.60
2022-12-03T15:35:30.576Z,2.50
2022-12-03T15:38:04.119Z,2.40
2022-12-03T15:40:38.757Z,2.30
2022-12-03T15:43:12.574Z,2.20
2022-12-03T15:45:46.323Z,2.10
2022-12-03T15:48:19.700Z,2.10
2022-12-03T15:50:54.394Z,2.00
2022-12-03T15:53:27.785Z,1.90
2022-12-03T15:56:01.210Z,1.80
2022-12-03T15:58:34.554Z,1.80
2022-12-03T16:01:08.571Z,1.70
2022-12-03T16:03:42.259Z,1.70
2022-12-03T16:06:18.229Z,1.70
2022-12-03T16:08:51.592Z,1.60
2022-12-03T16:11:24.939Z,1.50
2022-12-03T16:13:58.219Z,1.50
2022-12-03T16:16:31.632Z,1.40
2022-12-03T16:19:05.176Z,1.50
2022-12-03T16:21:40.125Z,1.40
2022-12-03T16:24:13.479Z,1.30
2022-12-03T16:26:46.808Z,1.30
2022-12-03T16:29:20.185Z,1.30
2022-12-03T16:31:53.538Z,1.20
2022-12-03T16:34:26.926Z,1.20
2022-12-03T16:37:01.664Z,1.20
2022-12-03T16:39:35.161Z,1.10
2022-12-03T16:42:14.212Z,1.10
2022-12-03T16:45:17.039Z,1.10
2022-12-03T16:47:50.503Z,1.10
2022-12-03T16:50:29.478Z,1.10
2022-12-03T16:53:05.093Z,1.10
2022-12-03T16:55:38.392Z,1.00
2022-12-03T16:58:11.763Z,1.10
2022-12-03T17:00:45.109Z,1.10
2022-12-03T17:03:18.877Z,1.00
2022-12-03T17:05:52.193Z,1.10
2022-12-03T17:08:26.878Z,1.10
2022-12-03T17:11:00.202Z,1.10
2022-12-03T17:13:33.660Z,1.10
2022-12-03T17:16:07.938Z,1.10
2022-12-03T17:18:41.582Z,1.10
2022-12-03T17:21:14.899Z,1.10
2022-12-03T17:23:51.112Z,1.10
2022-12-03T17:26:24.485Z,1.10
2022-12-03T17:28:57.776Z,1.10
2022-12-03T17:31:31.286Z,1.10
2022-12-03T17:34:04.684Z,1.10
2022-12-03T17:36:38.106Z,1.00
2022-12-03T17:39:12.843Z,1.00
2022-12-03T17:41:46.320Z,1.00
2022-12-03T17:44:21.482Z,1.00
2022-12-03T17:46:54.977Z,1.00
2022-12-03T17:49:31.743Z,1.00
2022-12-03T17:52:05.393Z,1.00
2022-12-03T17:55:08.370Z,1.00
2022-12-03T17:57:33.434Z,1.00
2022-12-03T18:00:08.380Z,0.90
2022-12-03T18:02:48.454Z,0.90
2022-12-03T18:05:23.117Z,0.90
2022-12-03T18:07:56.528Z,0.90
2022-12-03T18:10:31.210Z,0.90
2022-12-03T18:13:05.674Z,0.90
2022-12-03T18:15:39.175Z,0.90
2022-12-03T18:18:12.661Z,0.80
2022-12-03T18:20:46.068Z,0.80
2022-12-03T18:23:19.443Z,0.80
2022-12-03T18:25:54.111Z,0.70
2022-12-03T18:28:27.446Z,0.70
2022-12-03T18:31:01.096Z,0.70
2022-12-03T18:33:34.422Z,0.60
2022-12-03T18:36:14.879Z,0.60
2022-12-03T18:38:51.075Z,0.60
2022-12-03T18:41:26.151Z,0.50
2022-12-03T18:43:59.467Z,0.50
2022-12-03T18:46:52.849Z,0.50
2022-12-03T18:49:27.111Z,0.40
2022-12-03T18:52:01.038Z,0.40
2022-12-03T18:54:34.398Z,0.30
2022-12-03T18:57:09.058Z,0.30
2022-12-03T18:59:43.492Z,0.30
2022-12-03T19:05:13.821Z,0.20
2022-12-03T19:07:47.207Z,0.20
2022-12-03T19:10:20.637Z,0.20
2022-12-03T19:12:55.622Z,0.20
2022-12-03T19:15:28.929Z,0.10
2022-12-03T19:18:02.212Z,0.10
2022-12-03T19:20:35.814Z,0.10
2022-12-03T19:23:09.101Z,0.10
2022-12-03T19:25:42.387Z,0.00
2022-12-03T19:28:17.094Z,0.00
2022-12-03T19:30:57.938Z,0.00
2022-12-03T19:33:32.376Z,0.00
2022-12-03T19:36:08.491Z,-0.10
2022-12-03T19:38:42.406Z,-0.10
2022-12-03T19:41:16.556Z,-0.10
2022-12-03T19:43:52.355Z,-0.10
2022-12-03T19:46:28.765Z,-0.10
2022-12-03T19:49:03.178Z,-0.10
2022-12-03T19:51:36.535Z,-0.10
2022-12-03T19:54:12.377Z,-0.20
2022-12-03T19:56:46.311Z,-0.20
2022-12-03T19:59:20.960Z,-0.20
2022-12-03T20:01:54.353Z,-0.20
2022-12-03T20:04:27.785Z,-0.20
2022-12-03T20:07:01.112Z,-0.20
2022-12-03T20:09:34.440Z,-0.20
2022-12-03T20:12:08.119Z,-0.20
2022-12-03T20:14:42.731Z,-0.20
2022-12-03T20:17:16.057Z,-0.20
2022-12-03T20:19:49.461Z,-0.20
2022-12-03T20:22:22.753Z,-0.20
2022-12-03T20:24:56.098Z,-0.20
2022-12-03T20:27:29.397Z,-0.20
2022-12-03T20:30:04.970Z,-0.20
2022-12-03T20:32:42.093Z,-0.20
2022-12-03T20:35:18.704Z,-0.30
2022-12-03T20:37:51.999Z,-0.30
2022-12-03T20:40:25.355Z,-0.30
2022-12-03T20:42:58.723Z,-0.30
2022-12-03T20:45:33.556Z,-0.30
2022-12-03T20:48:07.022Z,-0.30
2022-12-03T20:50:40.741Z,-0.40
2022-12-03T20:53:24.956Z,-0.40
2022-12-03T20:55:59.706Z,-0.40
2022-12-03T20:58:33.492Z,-0.40
2022-12-03T21:01:15.886Z,-0.40
2022-12-03T21:03:50.939Z,-0.40
2022-12-03T21:06:25.831Z,-0.40
2022-12-03T21:09:00.723Z,-0.40
2022-12-03T21:11:35.909Z,-0.50
2022-12-03T21:14:10.883Z,-0.50
2022-12-03T21:19:42.537Z,-0.50
2022-12-03T21:22:15.902Z,-0.50
2022-12-03T21:24:49.223Z,-0.60
2022-12-03T21:27:22.594Z,-0.60
2022-12-03T21:29:57.384Z,-0.60
2022-12-03T21:32:32.388Z,-0.60
2022-12-03T21:35:06.161Z,-0.60
2022-12-03T21:37:39.452Z,-0.60
2022-12-03T21:40:13.141Z,-0.60
2022-12-03T21:42:46.424Z,-0.60
2022-12-03T21:45:19.885Z,-0.60
2022-12-03T21:47:54.620Z,-0.60
2022-12-03T21:50:27.921Z,-0.70
2022-12-03T21:53:01.469Z,-0.70
2022-12-03T21:55:34.776Z,-0.70
2022-12-03T21:58:08.141Z,-0.60
2022-12-03T22:00:41.393Z,-0.60
2022-12-03T22:03:17.319Z,-0.60
2022-12-03T22:05:50.797Z,-0.60
2022-12-03T22:08:24.053Z,-0.60
2022-12-03T22:10:57.350Z,-0.60
2022-12-03T22:13:30.697Z,-0.60
2022-12-03T22:16:06.962Z,-0.60
2022-12-03T22:18:41.815Z,-0.60
2022-12-03T22:21:17.181Z,-0.50
2022-12-03T22:23:50.501Z,-0.50
2022-12-03T22:26:23.951Z,-0.50
2022-12-03T22:28:57.192Z,-0.50
2022-12-03T22:31:30.594Z,-0.50
2022-12-03T22:34:05.365Z,-0.50
2022-12-03T22:36:38.830Z,-0.40
2022-12-03T22:39:12.484Z,-0.40
2022-12-03T22:41:45.790Z,-0.40
2022-12-03T22:44:19.058Z,-0.40
2022-12-03T22:46:53.484Z,-0.40
2022-12-03T22:49:28.426Z,-0.40
2022-12-03T22:52:02.046Z,-0.40
2022-12-03T22:54:35.398Z,-0.40
2022-12-03T22:57:08.715Z,-0.40
2022-12-03T22:59:42.051Z,-0.40
2022-12-03T23:02:15.344Z,-0.40
2022-12-03T23:04:50.495Z,-0.40
2022-12-03T23:07:23.806Z,-0.50
2022-12-03T23:09:57.327Z,-0.50
2022-12-03T23:12:32.272Z,-0.50
2022-12-03T23:15:06.966Z,-0.50
2022-12-03T23:17:40.226Z,-0.50
2022-12-03T23:20:15.846Z,-0.50
2022-12-03T23:22:49.852Z,-0.50
2022-12-03T23:25:23.863Z,-0.60
2022-12-03T23:27:57.327Z,-0.60
2022-12-03T23:30:30.690Z,-0.60
2022-12-03T23:33:04.674Z,-0.60
2022-12-03T23:35:40.605Z,-0.60
2022-12-03T23:38:13.922Z,-0.60
2022-12-03T23:40:48.401Z,-0.70
2022-12-03T23:43:22.027Z,-0.60
2022-12-03T23:45:55.284Z,-0.60
2022-12-03T23:48:30.045Z,-0.60
2022-12-03T23:51:08.045Z,-0.60
2022-12-03T23:53:42.227Z,-0.60
2022-12-03T23:56:17.671Z,-0.60
2022-12-03T23:58:51.116Z,-0.60
